sensor_id;sensor_type;location;lat;lon;timestamp;P1;durP1;ratioP1;P2;durP2;ratioP2
14603;SDS011;7388;51.078;13.740;2023-04-07T00:01:45;13.87;;;12.33;;
14603;SDS011;7388;51.078;13.740;2023-04-07T00:04:11;13.93;;;12.00;;
14603;SDS011;7388;51.078;13.740;2023-04-07T00:06:37;16.97;;;12.87;;
14603;SDS011;7388;51.078;13.740;2023-04-07T00:09:02;15.33;;;12.77;;
14603;SDS011;7388;51.078;13.740;2023-04-07T00:11:28;16.40;;;13.30;;
14603;SDS011;7388;51.078;13.740;2023-04-07T00:13:54;13.43;;;10.50;;
14603;SDS011;7388;51.078;13.740;2023-04-07T00:16:20;14.93;;;10.60;;
14603;SDS011;7388;51.078;13.740;2023-04-07T00:18:45;12.40;;;10.93;;
14603;SDS011;7388;51.078;13.740;2023-04-07T00:21:11;10.47;;;8.63;;
14603;SDS011;7388;51.078;13.740;2023-04-07T00:23:37;13.83;;;9.70;;
14603;SDS011;7388;51.078;13.740;2023-04-07T00:26:02;12.70;;;10.30;;
14603;SDS011;7388;51.078;13.740;2023-04-07T00:28:28;9.80;;;8.73;;
14603;SDS011;7388;51.078;13.740;2023-04-07T00:30:54;11.37;;;9.50;;
14603;SDS011;7388;51.078;13.740;2023-04-07T00:33:20;11.53;;;10.33;;
14603;SDS011;7388;51.078;13.740;2023-04-07T00:35:45;9.83;;;8.83;;
14603;SDS011;7388;51.078;13.740;2023-04-07T00:38:11;9.77;;;8.77;;
14603;SDS011;7388;51.078;13.740;2023-04-07T00:40:37;10.43;;;9.10;;
14603;SDS011;7388;51.078;13.740;2023-04-07T00:43:03;11.37;;;9.50;;
14603;SDS011;7388;51.078;13.740;2023-04-07T00:45:28;10.67;;;9.67;;
14603;SDS011;7388;51.078;13.740;2023-04-07T00:47:55;10.07;;;9.07;;
14603;SDS011;7388;51.078;13.740;2023-04-07T00:50:22;12.25;;;8.85;;
14603;SDS011;7388;51.078;13.740;2023-04-07T00:52:48;10.75;;;9.75;;
14603;SDS011;7388;51.078;13.740;2023-04-07T00:55:14;10.82;;;9.80;;
14603;SDS011;7388;51.078;13.740;2023-04-07T00:57:40;15.13;;;10.00;;
14603;SDS011;7388;51.078;13.740;2023-04-07T01:00:06;10.50;;;9.13;;
14603;SDS011;7388;51.078;13.740;2023-04-07T01:02:35;9.02;;;8.18;;
14603;SDS011;7388;51.078;13.740;2023-04-07T01:05:04;10.90;;;9.80;;
14603;SDS011;7388;51.078;13.740;2023-04-07T01:07:45;11.20;;;8.30;;
14603;SDS011;7388;51.078;13.740;2023-04-07T01:10:18;8.98;;;8.07;;
14603;SDS011;7388;51.078;13.740;2023-04-07T01:13:02;8.93;;;8.02;;
14603;SDS011;7388;51.078;13.740;2023-04-07T01:15:33;10.88;;;9.00;;
14603;SDS011;7388;51.078;13.740;2023-04-07T01:18:22;8.27;;;7.25;;
14603;SDS011;7388;51.078;13.740;2023-04-07T01:20:49;11.82;;;8.75;;
14603;SDS011;7388;51.078;13.740;2023-04-07T01:23:20;12.88;;;8.82;;
14603;SDS011;7388;51.078;13.740;2023-04-07T01:26:02;10.27;;;9.15;;
14603;SDS011;7388;51.078;13.740;2023-04-07T01:31:28;10.27;;;7.70;;
14603;SDS011;7388;51.078;13.740;2023-04-07T01:33:55;10.70;;;7.95;;
14603;SDS011;7388;51.078;13.740;2023-04-07T01:36:25;10.38;;;9.45;;
14603;SDS011;7388;51.078;13.740;2023-04-07T01:38:52;9.88;;;8.93;;
14603;SDS011;7388;51.078;13.740;2023-04-07T01:41:19;10.18;;;8.23;;
14603;SDS011;7388;51.078;13.740;2023-04-07T01:43:47;10.25;;;8.77;;
14603;SDS011;7388;51.078;13.740;2023-04-07T01:46:13;9.73;;;8.57;;
14603;SDS011;7388;51.078;13.740;2023-04-07T01:48:39;10.38;;;9.18;;
14603;SDS011;7388;51.078;13.740;2023-04-07T01:51:07;10.68;;;8.43;;
14603;SDS011;7388;51.078;13.740;2023-04-07T01:53:36;14.50;;;10.10;;
14603;SDS011;7388;51.078;13.740;2023-04-07T01:56:03;12.38;;;8.82;;
14603;SDS011;7388;51.078;13.740;2023-04-07T01:58:29;11.05;;;8.38;;
14603;SDS011;7388;51.078;13.740;2023-04-07T02:00:55;9.50;;;7.83;;
14603;SDS011;7388;51.078;13.740;2023-04-07T02:03:31;10.57;;;8.10;;
14603;SDS011;7388;51.078;13.740;2023-04-07T02:06:05;10.85;;;9.70;;
14603;SDS011;7388;51.078;13.740;2023-04-07T02:08:32;9.77;;;8.38;;
14603;SDS011;7388;51.078;13.740;2023-04-07T02:11:00;10.80;;;8.90;;
14603;SDS011;7388;51.078;13.740;2023-04-07T02:13:27;11.07;;;8.90;;
14603;SDS011;7388;51.078;13.740;2023-04-07T02:15:54;13.40;;;9.63;;
14603;SDS011;7388;51.078;13.740;2023-04-07T02:18:22;9.70;;;8.73;;
14603;SDS011;7388;51.078;13.740;2023-04-07T02:20:49;12.10;;;8.80;;
14603;SDS011;7388;51.078;13.740;2023-04-07T02:23:16;10.95;;;9.82;;
14603;SDS011;7388;51.078;13.740;2023-04-07T02:25:42;11.93;;;9.57;;
14603;SDS011;7388;51.078;13.740;2023-04-07T02:28:07;13.27;;;8.37;;
14603;SDS011;7388;51.078;13.740;2023-04-07T02:30:33;15.50;;;9.40;;
14603;SDS011;7388;51.078;13.740;2023-04-07T02:33:00;10.98;;;8.50;;
14603;SDS011;7388;51.078;13.740;2023-04-07T02:35:26;12.27;;;8.80;;
14603;SDS011;7388;51.078;13.740;2023-04-07T02:37:52;9.93;;;8.03;;
14603;SDS011;7388;51.078;13.740;2023-04-07T02:40:17;12.40;;;10.25;;
14603;SDS011;7388;51.078;13.740;2023-04-07T02:42:43;12.50;;;9.20;;
14603;SDS011;7388;51.078;13.740;2023-04-07T02:45:10;10.82;;;8.95;;
14603;SDS011;7388;51.078;13.740;2023-04-07T02:47:36;11.80;;;8.50;;
14603;SDS011;7388;51.078;13.740;2023-04-07T02:50:03;10.57;;;9.38;;
14603;SDS011;7388;51.078;13.740;2023-04-07T02:52:29;10.35;;;9.18;;
14603;SDS011;7388;51.078;13.740;2023-04-07T02:54:55;10.97;;;9.97;;
14603;SDS011;7388;51.078;13.740;2023-04-07T02:57:20;9.53;;;8.50;;
14603;SDS011;7388;51.078;13.740;2023-04-07T02:59:46;15.40;;;8.80;;
14603;SDS011;7388;51.078;13.740;2023-04-07T03:02:12;12.90;;;8.77;;
14603;SDS011;7388;51.078;13.740;2023-04-07T03:04:38;8.80;;;7.90;;
14603;SDS011;7388;51.078;13.740;2023-04-07T03:07:04;11.73;;;9.77;;
14603;SDS011;7388;51.078;13.740;2023-04-07T03:09:29;10.47;;;8.53;;
14603;SDS011;7388;51.078;13.740;2023-04-07T03:11:55;13.30;;;10.60;;
14603;SDS011;7388;51.078;13.740;2023-04-07T03:14:22;9.40;;;8.27;;
14603;SDS011;7388;51.078;13.740;2023-04-07T03:16:48;11.10;;;9.20;;
14603;SDS011;7388;51.078;13.740;2023-04-07T03:19:13;9.50;;;7.90;;
14603;SDS011;7388;51.078;13.740;2023-04-07T03:21:40;10.48;;;8.18;;
14603;SDS011;7388;51.078;13.740;2023-04-07T03:24:06;12.17;;;8.90;;
14603;SDS011;7388;51.078;13.740;2023-04-07T03:26:32;11.40;;;9.57;;
14603;SDS011;7388;51.078;13.740;2023-04-07T03:28:57;11.87;;;9.03;;
14603;SDS011;7388;51.078;13.740;2023-04-07T03:31:23;11.43;;;9.37;;
14603;SDS011;7388;51.078;13.740;2023-04-07T03:33:49;14.37;;;9.23;;
14603;SDS011;7388;51.078;13.740;2023-04-07T03:36:15;10.38;;;9.20;;
14603;SDS011;7388;51.078;13.740;2023-04-07T03:38:45;14.70;;;10.63;;
14603;SDS011;7388;51.078;13.740;2023-04-07T03:41:12;10.40;;;8.85;;
14603;SDS011;7388;51.078;13.740;2023-04-07T03:43:37;10.70;;;8.53;;
14603;SDS011;7388;51.078;13.740;2023-04-07T03:46:03;9.27;;;8.40;;
14603;SDS011;7388;51.078;13.740;2023-04-07T03:48:29;9.50;;;8.50;;
14603;SDS011;7388;51.078;13.740;2023-04-07T03:50:55;11.57;;;9.27;;
14603;SDS011;7388;51.078;13.740;2023-04-07T03:53:21;12.03;;;8.90;;
14603;SDS011;7388;51.078;13.740;2023-04-07T03:55:46;10.73;;;9.10;;
14603;SDS011;7388;51.078;13.740;2023-04-07T03:58:12;9.40;;;8.47;;
14603;SDS011;7388;51.078;13.740;2023-04-07T04:00:38;11.53;;;10.03;;
14603;SDS011;7388;51.078;13.740;2023-04-07T04:03:04;11.60;;;10.35;;
14603;SDS011;7388;51.078;13.740;2023-04-07T04:05:30;11.80;;;9.43;;
14603;SDS011;7388;51.078;13.740;2023-04-07T04:07:56;9.50;;;8.10;;
14603;SDS011;7388;51.078;13.740;2023-04-07T04:10:22;10.57;;;9.10;;
14603;SDS011;7388;51.078;13.740;2023-04-07T04:12:47;10.50;;;8.90;;
14603;SDS011;7388;51.078;13.740;2023-04-07T04:15:14;10.07;;;8.87;;
14603;SDS011;7388;51.078;13.740;2023-04-07T04:17:40;13.05;;;9.70;;
14603;SDS011;7388;51.078;13.740;2023-04-07T04:20:06;14.23;;;10.68;;
14603;SDS011;7388;51.078;13.740;2023-04-07T04:22:33;11.93;;;9.50;;
14603;SDS011;7388;51.078;13.740;2023-04-07T04:24:59;13.82;;;9.40;;
14603;SDS011;7388;51.078;13.740;2023-04-07T04:27:25;13.00;;;9.65;;
14603;SDS011;7388;51.078;13.740;2023-04-07T04:29:51;11.65;;;9.05;;
14603;SDS011;7388;51.078;13.740;2023-04-07T04:32:17;10.82;;;9.75;;
14603;SDS011;7388;51.078;13.740;2023-04-07T04:34:44;12.35;;;9.57;;
14603;SDS011;7388;51.078;13.740;2023-04-07T04:37:10;10.15;;;8.50;;
14603;SDS011;7388;51.078;13.740;2023-04-07T04:39:35;10.80;;;9.10;;
14603;SDS011;7388;51.078;13.740;2023-04-07T04:42:01;10.70;;;9.67;;
14603;SDS011;7388;51.078;13.740;2023-04-07T04:44:27;11.65;;;8.25;;
14603;SDS011;7388;51.078;13.740;2023-04-07T04:46:54;8.77;;;7.93;;
14603;SDS011;7388;51.078;13.740;2023-04-07T04:49:20;12.73;;;9.23;;
14603;SDS011;7388;51.078;13.740;2023-04-07T04:51:46;12.17;;;8.97;;
14603;SDS011;7388;51.078;13.740;2023-04-07T04:54:12;12.23;;;8.83;;
14603;SDS011;7388;51.078;13.740;2023-04-07T04:56:37;10.70;;;9.57;;
14603;SDS011;7388;51.078;13.740;2023-04-07T04:59:03;10.40;;;9.27;;
14603;SDS011;7388;51.078;13.740;2023-04-07T05:01:29;10.25;;;8.00;;
14603;SDS011;7388;51.078;13.740;2023-04-07T05:03:55;13.00;;;10.90;;
14603;SDS011;7388;51.078;13.740;2023-04-07T05:06:21;12.77;;;11.07;;
14603;SDS011;7388;51.078;13.740;2023-04-07T05:08:47;12.50;;;10.90;;
14603;SDS011;7388;51.078;13.740;2023-04-07T05:11:13;12.40;;;10.70;;
14603;SDS011;7388;51.078;13.740;2023-04-07T05:13:39;11.48;;;9.82;;
14603;SDS011;7388;51.078;13.740;2023-04-07T05:16:05;12.90;;;10.63;;
14603;SDS011;7388;51.078;13.740;2023-04-07T05:18:31;13.98;;;11.95;;
14603;SDS011;7388;51.078;13.740;2023-04-07T05:20:57;12.83;;;11.33;;
14603;SDS011;7388;51.078;13.740;2023-04-07T05:23:22;10.70;;;9.20;;
14603;SDS011;7388;51.078;13.740;2023-04-07T05:25:48;12.00;;;9.17;;
14603;SDS011;7388;51.078;13.740;2023-04-07T05:28:15;11.95;;;9.30;;
14603;SDS011;7388;51.078;13.740;2023-04-07T05:30:40;11.53;;;9.40;;
14603;SDS011;7388;51.078;13.740;2023-04-07T05:33:06;13.30;;;9.77;;
14603;SDS011;7388;51.078;13.740;2023-04-07T05:35:32;10.73;;;9.17;;
14603;SDS011;7388;51.078;13.740;2023-04-07T05:37:58;13.23;;;9.10;;
14603;SDS011;7388;51.078;13.740;2023-04-07T05:40:23;11.37;;;9.50;;
14603;SDS011;7388;51.078;13.740;2023-04-07T05:42:49;10.33;;;9.20;;
14603;SDS011;7388;51.078;13.740;2023-04-07T05:45:15;12.97;;;10.30;;
14603;SDS011;7388;51.078;13.740;2023-04-07T05:47:41;12.00;;;10.67;;
14603;SDS011;7388;51.078;13.740;2023-04-07T05:50:07;13.33;;;9.80;;
14603;SDS011;7388;51.078;13.740;2023-04-07T05:52:33;13.65;;;9.93;;
14603;SDS011;7388;51.078;13.740;2023-04-07T05:54:58;12.17;;;9.60;;
14603;SDS011;7388;51.078;13.740;2023-04-07T05:57:24;13.90;;;9.90;;
14603;SDS011;7388;51.078;13.740;2023-04-07T05:59:52;11.95;;;10.70;;
14603;SDS011;7388;51.078;13.740;2023-04-07T06:02:18;9.43;;;8.47;;
14603;SDS011;7388;51.078;13.740;2023-04-07T06:04:43;14.33;;;12.00;;
14603;SDS011;7388;51.078;13.740;2023-04-07T06:07:10;10.77;;;9.38;;
14603;SDS011;7388;51.078;13.740;2023-04-07T06:09:35;11.03;;;9.17;;
14603;SDS011;7388;51.078;13.740;2023-04-07T06:12:01;15.43;;;11.00;;
14603;SDS011;7388;51.078;13.740;2023-04-07T06:14:29;12.90;;;11.50;;
14603;SDS011;7388;51.078;13.740;2023-04-07T06:16:54;10.83;;;9.37;;
14603;SDS011;7388;51.078;13.740;2023-04-07T06:19:20;16.90;;;10.83;;
14603;SDS011;7388;51.078;13.740;2023-04-07T06:21:46;10.90;;;9.27;;
14603;SDS011;7388;51.078;13.740;2023-04-07T06:24:12;12.00;;;10.13;;
14603;SDS011;7388;51.078;13.740;2023-04-07T06:26:38;12.00;;;10.57;;
14603;SDS011;7388;51.078;13.740;2023-04-07T06:29:04;11.18;;;9.57;;
14603;SDS011;7388;51.078;13.740;2023-04-07T06:31:30;11.23;;;9.30;;
14603;SDS011;7388;51.078;13.740;2023-04-07T06:33:56;11.13;;;10.00;;
14603;SDS011;7388;51.078;13.740;2023-04-07T06:36:22;10.90;;;9.57;;
14603;SDS011;7388;51.078;13.740;2023-04-07T06:38:47;14.50;;;11.03;;
14603;SDS011;7388;51.078;13.740;2023-04-07T06:41:13;10.17;;;9.17;;
14603;SDS011;7388;51.078;13.740;2023-04-07T06:43:45;10.85;;;9.55;;
14603;SDS011;7388;51.078;13.740;2023-04-07T06:46:11;16.08;;;10.98;;
14603;SDS011;7388;51.078;13.740;2023-04-07T06:48:37;12.30;;;10.27;;
14603;SDS011;7388;51.078;13.740;2023-04-07T06:51:03;12.40;;;10.57;;
14603;SDS011;7388;51.078;13.740;2023-04-07T06:53:29;12.90;;;10.33;;
14603;SDS011;7388;51.078;13.740;2023-04-07T06:56:07;10.97;;;9.90;;
14603;SDS011;7388;51.078;13.740;2023-04-07T06:58:35;11.98;;;9.02;;
14603;SDS011;7388;51.078;13.740;2023-04-07T07:01:02;12.35;;;10.77;;
14603;SDS011;7388;51.078;13.740;2023-04-07T07:03:28;12.63;;;10.30;;
14603;SDS011;7388;51.078;13.740;2023-04-07T07:05:55;11.40;;;9.73;;
14603;SDS011;7388;51.078;13.740;2023-04-07T07:08:24;10.55;;;8.70;;
14603;SDS011;7388;51.078;13.740;2023-04-07T07:10:51;11.98;;;9.20;;
14603;SDS011;7388;51.078;13.740;2023-04-07T07:13:17;10.98;;;9.32;;
14603;SDS011;7388;51.078;13.740;2023-04-07T07:15:44;18.83;;;11.20;;
14603;SDS011;7388;51.078;13.740;2023-04-07T07:18:10;16.53;;;9.43;;
14603;SDS011;7388;51.078;13.740;2023-04-07T07:20:36;12.13;;;8.98;;
14603;SDS011;7388;51.078;13.740;2023-04-07T07:23:02;11.73;;;10.23;;
14603;SDS011;7388;51.078;13.740;2023-04-07T07:25:28;12.37;;;10.00;;
14603;SDS011;7388;51.078;13.740;2023-04-07T07:27:54;9.97;;;8.37;;
14603;SDS011;7388;51.078;13.740;2023-04-07T07:30:20;10.77;;;9.40;;
14603;SDS011;7388;51.078;13.740;2023-04-07T07:32:46;11.05;;;9.30;;
14603;SDS011;7388;51.078;13.740;2023-04-07T07:35:13;13.17;;;10.03;;
14603;SDS011;7388;51.078;13.740;2023-04-07T07:37:39;12.45;;;10.75;;
14603;SDS011;7388;51.078;13.740;2023-04-07T07:40:05;12.65;;;10.27;;
14603;SDS011;7388;51.078;13.740;2023-04-07T07:42:31;12.85;;;11.15;;
14603;SDS011;7388;51.078;13.740;2023-04-07T07:44:57;10.97;;;9.27;;
14603;SDS011;7388;51.078;13.740;2023-04-07T07:47:24;13.32;;;11.13;;
14603;SDS011;7388;51.078;13.740;2023-04-07T07:49:50;12.27;;;10.00;;
14603;SDS011;7388;51.078;13.740;2023-04-07T07:52:16;15.10;;;8.73;;
14603;SDS011;7388;51.078;13.740;2023-04-07T07:54:42;14.70;;;9.43;;
14603;SDS011;7388;51.078;13.740;2023-04-07T07:57:08;13.27;;;9.80;;
14603;SDS011;7388;51.078;13.740;2023-04-07T07:59:33;13.90;;;10.90;;
14603;SDS011;7388;51.078;13.740;2023-04-07T08:01:59;10.20;;;9.20;;
14603;SDS011;7388;51.078;13.740;2023-04-07T08:04:25;11.83;;;10.30;;
14603;SDS011;7388;51.078;13.740;2023-04-07T08:06:51;9.93;;;8.93;;
14603;SDS011;7388;51.078;13.740;2023-04-07T08:09:17;11.45;;;10.35;;
14603;SDS011;7388;51.078;13.740;2023-04-07T08:11:45;10.60;;;9.50;;
14603;SDS011;7388;51.078;13.740;2023-04-07T08:14:12;11.90;;;10.55;;
14603;SDS011;7388;51.078;13.740;2023-04-07T08:16:39;14.10;;;10.45;;
14603;SDS011;7388;51.078;13.740;2023-04-07T08:19:04;12.80;;;11.13;;
14603;SDS011;7388;51.078;13.740;2023-04-07T08:21:30;15.93;;;10.30;;
14603;SDS011;7388;51.078;13.740;2023-04-07T08:23:56;15.50;;;12.10;;
14603;SDS011;7388;51.078;13.740;2023-04-07T08:26:22;15.93;;;11.83;;
14603;SDS011;7388;51.078;13.740;2023-04-07T08:28:48;12.07;;;10.77;;
14603;SDS011;7388;51.078;13.740;2023-04-07T08:31:17;14.30;;;10.30;;
14603;SDS011;7388;51.078;13.740;2023-04-07T08:33:43;14.77;;;11.27;;
14603;SDS011;7388;51.078;13.740;2023-04-07T08:36:10;14.00;;;11.07;;
14603;SDS011;7388;51.078;13.740;2023-04-07T08:38:36;13.03;;;11.70;;
14603;SDS011;7388;51.078;13.740;2023-04-07T08:41:03;16.90;;;11.13;;
14603;SDS011;7388;51.078;13.740;2023-04-07T08:43:34;13.23;;;11.52;;
14603;SDS011;7388;51.078;13.740;2023-04-07T08:46:01;12.68;;;10.70;;
14603;SDS011;7388;51.078;13.740;2023-04-07T08:48:28;12.43;;;10.35;;
14603;SDS011;7388;51.078;13.740;2023-04-07T08:50:59;11.50;;;10.18;;
14603;SDS011;7388;51.078;13.740;2023-04-07T08:53:33;16.67;;;10.90;;
14603;SDS011;7388;51.078;13.740;2023-04-07T08:56:05;15.43;;;10.43;;
14603;SDS011;7388;51.078;13.740;2023-04-07T08:58:32;14.23;;;11.45;;
14603;SDS011;7388;51.078;13.740;2023-04-07T09:01:00;16.92;;;11.27;;
14603;SDS011;7388;51.078;13.740;2023-04-07T09:03:31;12.05;;;9.75;;
14603;SDS011;7388;51.078;13.740;2023-04-07T09:06:01;10.60;;;8.75;;
14603;SDS011;7388;51.078;13.740;2023-04-07T09:08:28;10.48;;;7.72;;
14603;SDS011;7388;51.078;13.740;2023-04-07T09:10:53;8.40;;;6.63;;
14603;SDS011;7388;51.078;13.740;2023-04-07T09:13:21;9.25;;;6.45;;
14603;SDS011;7388;51.078;13.740;2023-04-07T09:15:48;7.65;;;6.53;;
14603;SDS011;7388;51.078;13.740;2023-04-07T09:18:15;8.50;;;7.03;;
14603;SDS011;7388;51.078;13.740;2023-04-07T09:21:00;7.50;;;6.70;;
14603;SDS011;7388;51.078;13.740;2023-04-07T09:23:31;10.93;;;6.88;;
14603;SDS011;7388;51.078;13.740;2023-04-07T09:25:59;9.68;;;6.55;;
14603;SDS011;7388;51.078;13.740;2023-04-07T09:28:45;8.07;;;5.97;;
14603;SDS011;7388;51.078;13.740;2023-04-07T09:31:21;8.43;;;6.47;;
14603;SDS011;7388;51.078;13.740;2023-04-07T09:33:50;9.00;;;6.65;;
14603;SDS011;7388;51.078;13.740;2023-04-07T09:36:17;11.77;;;7.63;;
14603;SDS011;7388;51.078;13.740;2023-04-07T09:38:43;9.07;;;7.05;;
14603;SDS011;7388;51.078;13.740;2023-04-07T09:41:11;10.43;;;7.03;;
14603;SDS011;7388;51.078;13.740;2023-04-07T09:43:39;8.80;;;6.25;;
14603;SDS011;7388;51.078;13.740;2023-04-07T09:46:07;12.25;;;7.03;;
14603;SDS011;7388;51.078;13.740;2023-04-07T09:48:40;10.70;;;7.20;;
14603;SDS011;7388;51.078;13.740;2023-04-07T09:53:48;10.38;;;6.40;;
14603;SDS011;7388;51.078;13.740;2023-04-07T09:56:19;8.88;;;7.25;;
14603;SDS011;7388;51.078;13.740;2023-04-07T09:58:49;10.88;;;6.78;;
14603;SDS011;7388;51.078;13.740;2023-04-07T10:01:19;8.50;;;6.45;;
14603;SDS011;7388;51.078;13.740;2023-04-07T10:03:46;8.98;;;6.25;;
14603;SDS011;7388;51.078;13.740;2023-04-07T10:06:13;7.97;;;6.90;;
14603;SDS011;7388;51.078;13.740;2023-04-07T10:08:41;8.48;;;6.75;;
14603;SDS011;7388;51.078;13.740;2023-04-07T10:11:07;9.25;;;6.55;;
14603;SDS011;7388;51.078;13.740;2023-04-07T10:13:34;8.43;;;6.50;;
14603;SDS011;7388;51.078;13.740;2023-04-07T10:16:04;7.75;;;5.50;;
14603;SDS011;7388;51.078;13.740;2023-04-07T10:18:32;8.15;;;6.15;;
14603;SDS011;7388;51.078;13.740;2023-04-07T10:20:59;8.55;;;5.97;;
14603;SDS011;7388;51.078;13.740;2023-04-07T10:25:58;9.00;;;6.40;;
14603;SDS011;7388;51.078;13.740;2023-04-07T10:28:24;8.68;;;7.05;;
14603;SDS011;7388;51.078;13.740;2023-04-07T10:30:52;9.35;;;7.53;;
14603;SDS011;7388;51.078;13.740;2023-04-07T10:36:10;6.95;;;6.25;;
14603;SDS011;7388;51.078;13.740;2023-04-07T10:38:37;8.18;;;6.07;;
14603;SDS011;7388;51.078;13.740;2023-04-07T10:41:30;11.80;;;6.90;;
14603;SDS011;7388;51.078;13.740;2023-04-07T10:44:01;7.85;;;5.90;;
14603;SDS011;7388;51.078;13.740;2023-04-07T10:49:16;7.32;;;5.47;;
14603;SDS011;7388;51.078;13.740;2023-04-07T10:51:42;8.55;;;6.03;;
14603;SDS011;7388;51.078;13.740;2023-04-07T10:54:14;7.05;;;4.80;;
14603;SDS011;7388;51.078;13.740;2023-04-07T10:59:32;9.45;;;6.43;;
14603;SDS011;7388;51.078;13.740;2023-04-07T11:02:43;7.53;;;5.80;;
14603;SDS011;7388;51.078;13.740;2023-04-07T11:04:47;7.78;;;5.78;;
14603;SDS011;7388;51.078;13.740;2023-04-07T11:07:13;7.50;;;5.97;;
14603;SDS011;7388;51.078;13.740;2023-04-07T11:09:40;8.27;;;7.13;;
14603;SDS011;7388;51.078;13.740;2023-04-07T11:12:06;10.60;;;7.50;;
14603;SDS011;7388;51.078;13.740;2023-04-07T11:14:33;11.65;;;8.63;;
14603;SDS011;7388;51.078;13.740;2023-04-07T11:17:02;7.55;;;6.40;;
14603;SDS011;7388;51.078;13.740;2023-04-07T11:19:28;8.13;;;6.55;;
14603;SDS011;7388;51.078;13.740;2023-04-07T11:24:51;7.78;;;5.68;;
14603;SDS011;7388;51.078;13.740;2023-04-07T11:27:16;13.10;;;6.43;;
14603;SDS011;7388;51.078;13.740;2023-04-07T11:29:42;10.23;;;6.20;;
14603;SDS011;7388;51.078;13.740;2023-04-07T11:32:08;6.57;;;5.57;;
14603;SDS011;7388;51.078;13.740;2023-04-07T11:34:35;6.95;;;6.25;;
14603;SDS011;7388;51.078;13.740;2023-04-07T11:37:22;6.43;;;5.70;;
14603;SDS011;7388;51.078;13.740;2023-04-07T11:39:54;9.88;;;6.38;;
14603;SDS011;7388;51.078;13.740;2023-04-07T11:42:30;7.85;;;6.30;;
14603;SDS011;7388;51.078;13.740;2023-04-07T11:45:03;7.78;;;6.90;;
14603;SDS011;7388;51.078;13.740;2023-04-07T11:47:36;8.00;;;5.60;;
14603;SDS011;7388;51.078;13.740;2023-04-07T11:50:03;13.32;;;9.70;;
14603;SDS011;7388;51.078;13.740;2023-04-07T11:52:39;11.85;;;9.75;;
14603;SDS011;7388;51.078;13.740;2023-04-07T11:55:05;8.27;;;7.35;;
14603;SDS011;7388;51.078;13.740;2023-04-07T11:57:40;9.20;;;8.20;;
14603;SDS011;7388;51.078;13.740;2023-04-07T12:00:09;9.77;;;8.43;;
14603;SDS011;7388;51.078;13.740;2023-04-07T12:02:37;11.02;;;8.27;;
14603;SDS011;7388;51.078;13.740;2023-04-07T12:05:03;10.00;;;8.03;;
14603;SDS011;7388;51.078;13.740;2023-04-07T12:07:30;10.65;;;9.10;;
14603;SDS011;7388;51.078;13.740;2023-04-07T12:09:55;12.40;;;8.57;;
14603;SDS011;7388;51.078;13.740;2023-04-07T12:12:27;10.50;;;7.70;;
14603;SDS011;7388;51.078;13.740;2023-04-07T12:14:54;9.40;;;7.78;;
14603;SDS011;7388;51.078;13.740;2023-04-07T12:17:25;10.10;;;8.43;;
14603;SDS011;7388;51.078;13.740;2023-04-07T12:19:51;8.82;;;7.45;;
14603;SDS011;7388;51.078;13.740;2023-04-07T12:22:18;9.35;;;8.45;;
14603;SDS011;7388;51.078;13.740;2023-04-07T12:24:44;11.23;;;8.60;;
14603;SDS011;7388;51.078;13.740;2023-04-07T12:27:10;10.50;;;8.65;;
14603;SDS011;7388;51.078;13.740;2023-04-07T12:29:36;13.35;;;10.52;;
14603;SDS011;7388;51.078;13.740;2023-04-07T12:32:03;10.48;;;9.38;;
14603;SDS011;7388;51.078;13.740;2023-04-07T12:34:29;15.60;;;13.30;;
14603;SDS011;7388;51.078;13.740;2023-04-07T12:36:55;14.97;;;9.73;;
14603;SDS011;7388;51.078;13.740;2023-04-07T12:39:21;11.53;;;9.23;;
14603;SDS011;7388;51.078;13.740;2023-04-07T12:41:46;13.23;;;9.17;;
14603;SDS011;7388;51.078;13.740;2023-04-07T12:44:17;24.02;;;10.63;;
14603;SDS011;7388;51.078;13.740;2023-04-07T12:46:43;17.02;;;13.25;;
14603;SDS011;7388;51.078;13.740;2023-04-07T12:49:09;14.10;;;11.03;;
14603;SDS011;7388;51.078;13.740;2023-04-07T12:51:35;11.38;;;9.35;;
14603;SDS011;7388;51.078;13.740;2023-04-07T12:54:02;9.30;;;8.30;;
14603;SDS011;7388;51.078;13.740;2023-04-07T12:56:28;11.73;;;9.43;;
14603;SDS011;7388;51.078;13.740;2023-04-07T12:58:54;12.40;;;9.55;;
14603;SDS011;7388;51.078;13.740;2023-04-07T13:01:20;9.77;;;8.30;;
14603;SDS011;7388;51.078;13.740;2023-04-07T13:03:46;11.47;;;10.23;;
14603;SDS011;7388;51.078;13.740;2023-04-07T13:06:12;13.27;;;10.03;;
14603;SDS011;7388;51.078;13.740;2023-04-07T13:08:40;12.43;;;10.80;;
14603;SDS011;7388;51.078;13.740;2023-04-07T13:11:06;10.43;;;8.32;;
14603;SDS011;7388;51.078;13.740;2023-04-07T13:13:32;9.53;;;8.63;;
14603;SDS011;7388;51.078;13.740;2023-04-07T13:15:58;18.35;;;10.73;;
14603;SDS011;7388;51.078;13.740;2023-04-07T13:18:24;10.13;;;9.17;;
14603;SDS011;7388;51.078;13.740;2023-04-07T13:20:50;16.37;;;14.83;;
14603;SDS011;7388;51.078;13.740;2023-04-07T13:23:15;10.60;;;9.40;;
14603;SDS011;7388;51.078;13.740;2023-04-07T13:25:41;13.60;;;10.83;;
14603;SDS011;7388;51.078;13.740;2023-04-07T13:28:07;15.33;;;10.03;;
14603;SDS011;7388;51.078;13.740;2023-04-07T13:30:33;12.13;;;8.10;;
14603;SDS011;7388;51.078;13.740;2023-04-07T13:32:59;9.27;;;8.00;;
14603;SDS011;7388;51.078;13.740;2023-04-07T13:35:24;16.57;;;12.07;;
14603;SDS011;7388;51.078;13.740;2023-04-07T13:37:50;17.67;;;15.80;;
14603;SDS011;7388;51.078;13.740;2023-04-07T13:40:16;11.03;;;7.97;;
14603;SDS011;7388;51.078;13.740;2023-04-07T13:42:42;9.40;;;7.70;;
14603;SDS011;7388;51.078;13.740;2023-04-07T13:45:08;9.60;;;8.30;;
14603;SDS011;7388;51.078;13.740;2023-04-07T13:47:34;11.73;;;9.67;;
14603;SDS011;7388;51.078;13.740;2023-04-07T13:50:00;11.70;;;10.55;;
14603;SDS011;7388;51.078;13.740;2023-04-07T13:52:27;11.98;;;10.40;;
14603;SDS011;7388;51.078;13.740;2023-04-07T13:54:52;11.60;;;9.30;;
14603;SDS011;7388;51.078;13.740;2023-04-07T13:57:19;9.88;;;8.32;;
14603;SDS011;7388;51.078;13.740;2023-04-07T13:59:48;9.65;;;8.35;;
14603;SDS011;7388;51.078;13.740;2023-04-07T14:02:18;11.82;;;9.13;;
14603;SDS011;7388;51.078;13.740;2023-04-07T14:04:44;11.50;;;9.05;;
14603;SDS011;7388;51.078;13.740;2023-04-07T14:07:10;14.05;;;10.18;;
14603;SDS011;7388;51.078;13.740;2023-04-07T14:09:36;17.48;;;9.30;;
14603;SDS011;7388;51.078;13.740;2023-04-07T14:12:02;14.03;;;9.50;;
14603;SDS011;7388;51.078;13.740;2023-04-07T14:14:29;15.85;;;12.18;;
14603;SDS011;7388;51.078;13.740;2023-04-07T14:16:55;9.02;;;8.13;;
14603;SDS011;7388;51.078;13.740;2023-04-07T14:19:22;16.45;;;13.82;;
14603;SDS011;7388;51.078;13.740;2023-04-07T14:21:48;12.07;;;10.77;;
14603;SDS011;7388;51.078;13.740;2023-04-07T14:24:15;10.00;;;8.95;;
14603;SDS011;7388;51.078;13.740;2023-04-07T14:26:44;10.85;;;7.85;;
14603;SDS011;7388;51.078;13.740;2023-04-07T14:29:10;9.50;;;8.07;;
14603;SDS011;7388;51.078;13.740;2023-04-07T14:31:37;10.75;;;8.20;;
14603;SDS011;7388;51.078;13.740;2023-04-07T14:34:03;8.77;;;7.80;;
14603;SDS011;7388;51.078;13.740;2023-04-07T14:36:29;9.10;;;8.20;;
14603;SDS011;7388;51.078;13.740;2023-04-07T14:38:56;9.35;;;8.27;;
14603;SDS011;7388;51.078;13.740;2023-04-07T14:41:23;10.60;;;8.95;;
14603;SDS011;7388;51.078;13.740;2023-04-07T14:43:48;16.42;;;8.98;;
14603;SDS011;7388;51.078;13.740;2023-04-07T14:46:20;9.15;;;8.25;;
14603;SDS011;7388;51.078;13.740;2023-04-07T14:48:49;11.32;;;10.18;;
14603;SDS011;7388;51.078;13.740;2023-04-07T14:51:18;10.52;;;8.77;;
14603;SDS011;7388;51.078;13.740;2023-04-07T14:53:45;9.50;;;8.30;;